Terminal Aerodrome Forecast
Issued by NWS

Home | Current Version | Previous Version | Text Only | Print | Product List | Glossary On
Versions: 1 2 3 4 5 6 7 8 9 10 11 12 13 14 15 16 17 18 19 20 21 22 23 24 25 26 27 28
000
FTUS45 KBOU 290336 AAC
TAFAPA
TAF AMD
KAPA 290336Z 2904/2924 08010KT P6SM -TSRA SCT035 BKN060CB OVC120
     FM290420 08010KT P6SM VCTS BKN060CB BKN120
     FM290700 17008KT P6SM SCT060 SCT120
     FM291100 15006KT P6SM SCT010 SCT030
     FM291500 36006KT P6SM SCT010 BKN030
     FM291700 04008KT P6SM SCT030 SCT080
     FM292000 12010KT P6SM SCT060 BKN080 PROB30 2922/2924 -TSRA
      BKN060CB=

USA.gov is the U.S. government's official web portal to all federal, state and local government web resources and services.